Souda — SVBH5 — position and weather

sailwx.info

Track history (hours):
 
Tides and Currents Weather Stations Pressure Air Temp Water Temp Dewpoint Dewpoint Depression Visibility Wind Speed Wind Dir Waves Ship Positions

Souda

Last reported at 2014-Sep-02 23:33 UTC. Time now 2014-Sep-03 02:29 UTC.
Position N 36°24' E 024°04'.

Length 88 m; draft 6.6 m.

Type: Tanker. MMSI: 241109000.

Date/timePositionNaut miles runAvg speedWind from/ knotsBaromVisibWave heightAir tempDewpointWater temp
2014-Sep-02 23:33N 36°24' E 024°04'8 7.8
2014-Sep-02 22:33N 36°32' E 024°02'16 8.1
2014-Sep-02 20:31N 36°48' E 023°59'11 8.2
2014-Sep-02 19:07N 36°59' E 023°55'43 7.7
2014-Sep-02 13:33N 37°40' E 023°42'8 7.6
2014-Sep-02 12:33N 37°47' E 023°38'7 7.4
2014-Sep-02 11:33N 37°50' E 023°29'8 8.4
2014-Sep-02 10:33N 37°52' E 023°18'11 0.8
2014-Sep-01 21:21N 37°55' E 023°06'0 0.1
2014-Sep-01 16:03N 37°55' E 023°06'0 0.0
2014-Sep-01 07:16N 37°55' E 023°06'0 0.0
2014-Aug-31 15:06N 37°55' E 023°06'1 1.1
2014-Aug-31 14:11N 37°54' E 023°07'8 9.1
2014-Aug-31 13:19N 37°52' E 023°17'7 9.2
2014-Aug-31 12:33N 37°51' E 023°25'9 8.7
2014-Aug-31 11:33N 37°50' E 023°36'7 7.1
2014-Aug-31 10:33N 37°45' E 023°42'9 8.8
2014-Aug-31 09:33N 37°37' E 023°47'84 1.7
2014-Aug-29 09:26N 36°14' E 024°05'19 8.8
2014-Aug-29 07:14N 36°33' E 024°01'6 8.8
2014-Aug-29 06:32N 36°40' E 024°00'9 8.9
2014-Aug-29 05:28N 36°49' E 023°58'9 8.7
2014-Aug-29 04:24N 36°58' E 023°55'10 8.6
2014-Aug-29 03:13N 37°08' E 023°53'32 8.6
2014-Aug-28 23:33N 37°38' E 023°43'9 8.7
2014-Aug-28 22:33N 37°46' E 023°38'7 7.2
2014-Aug-28 21:33N 37°50' E 023°30'8 8.3
2014-Aug-28 20:33N 37°51' E 023°20'9 8.4
2014-Aug-28 19:26N 37°53' E 023°08'3 0.1
2014-Aug-28 00:31N 37°55' E 023°05'1 0.1
2014-Aug-27 17:09N 37°55' E 023°06'0 0.0
2014-Aug-27 15:27N 37°55' E 023°06'10 0.3
2014-Aug-26 01:32N 37°52' E 023°18'8 8.5
2014-Aug-26 00:33N 37°50' E 023°29'9 8.9
2014-Aug-25 23:33N 37°49' E 023°40'9 8.7
2014-Aug-25 22:33N 37°41' E 023°45'28 9.1
2014-Aug-25 19:31N 37°14' E 023°52'13 8.6
2014-Aug-25 18:04N 37°01' E 023°54'8 9.4
2014-Aug-25 17:15N 36°54' E 023°56'7 9.4
2014-Aug-25 16:33N 36°47' E 023°58'10 9.1
2014-Aug-25 15:30N 36°38' E 023°60'9 9.2
2014-Aug-25 14:33N 36°29' E 024°02'9 9.0
2014-Aug-25 13:33N 36°21' E 024°04'9 8.9
2014-Aug-25 12:33N 36°12' E 024°06'9 9.4
2014-Aug-25 11:33N 36°03' E 024°08'9 9.4
2014-Aug-25 10:33N 35°53' E 024°10'13 9.1
2014-Aug-25 09:06N 35°40' E 024°13'12 7.4
2014-Aug-25 07:30N 35°29' E 024°09'1 0.0
2014-Aug-24 05:24N 35°29' E 024°10'31 7.9
2014-Aug-24 01:31N 35°60' E 024°09'11 8.3
2014-Aug-24 00:10N 36°11' E 024°07'5 8.4
2014-Aug-23 23:33N 36°16' E 024°05'  
Track history (hours):
 
Tides and Currents Weather Stations Pressure Air Temp Water Temp Dewpoint Dewpoint Depression Visibility Wind Speed Wind Dir Waves Ship Positions

Souda

Last reported at 2014-Sep-02 23:33 UTC. Time now 2014-Sep-03 02:29 UTC.
Position N 36°24' E 024°04'.

Length 88 m; draft 6.6 m.

Type: Tanker. MMSI: 241109000.

Date/timePositionNaut miles runAvg speedWind from/ knotsBaromVisibWave heightAir tempDewpointWater temp
2014-Sep-02 23:33N 36°24' E 024°04'8 7.8
2014-Sep-02 22:33N 36°32' E 024°02'16 8.1
2014-Sep-02 20:31N 36°48' E 023°59'11 8.2
2014-Sep-02 19:07N 36°59' E 023°55'43 7.7
2014-Sep-02 13:33N 37°40' E 023°42'8 7.6
2014-Sep-02 12:33N 37°47' E 023°38'7 7.4
2014-Sep-02 11:33N 37°50' E 023°29'8 8.4
2014-Sep-02 10:33N 37°52' E 023°18'11 0.8
2014-Sep-01 21:21N 37°55' E 023°06'0 0.1
2014-Sep-01 16:03N 37°55' E 023°06'0 0.0
2014-Sep-01 07:16N 37°55' E 023°06'0 0.0
2014-Aug-31 15:06N 37°55' E 023°06'1 1.1
2014-Aug-31 14:11N 37°54' E 023°07'8 9.1
2014-Aug-31 13:19N 37°52' E 023°17'7 9.2
2014-Aug-31 12:33N 37°51' E 023°25'9 8.7
2014-Aug-31 11:33N 37°50' E 023°36'7 7.1
2014-Aug-31 10:33N 37°45' E 023°42'9 8.8
2014-Aug-31 09:33N 37°37' E 023°47'84 1.7
2014-Aug-29 09:26N 36°14' E 024°05'19 8.8
2014-Aug-29 07:14N 36°33' E 024°01'6 8.8
2014-Aug-29 06:32N 36°40' E 024°00'9 8.9
2014-Aug-29 05:28N 36°49' E 023°58'9 8.7
2014-Aug-29 04:24N 36°58' E 023°55'10 8.6
2014-Aug-29 03:13N 37°08' E 023°53'32 8.6
2014-Aug-28 23:33N 37°38' E 023°43'9 8.7
2014-Aug-28 22:33N 37°46' E 023°38'7 7.2
2014-Aug-28 21:33N 37°50' E 023°30'8 8.3
2014-Aug-28 20:33N 37°51' E 023°20'9 8.4
2014-Aug-28 19:26N 37°53' E 023°08'3 0.1
2014-Aug-28 00:31N 37°55' E 023°05'1 0.1
2014-Aug-27 17:09N 37°55' E 023°06'0 0.0
2014-Aug-27 15:27N 37°55' E 023°06'10 0.3
2014-Aug-26 01:32N 37°52' E 023°18'8 8.5
2014-Aug-26 00:33N 37°50' E 023°29'9 8.9
2014-Aug-25 23:33N 37°49' E 023°40'9 8.7
2014-Aug-25 22:33N 37°41' E 023°45'28 9.1
2014-Aug-25 19:31N 37°14' E 023°52'13 8.6
2014-Aug-25 18:04N 37°01' E 023°54'8 9.4
2014-Aug-25 17:15N 36°54' E 023°56'7 9.4
2014-Aug-25 16:33N 36°47' E 023°58'10 9.1
2014-Aug-25 15:30N 36°38' E 023°60'9 9.2
2014-Aug-25 14:33N 36°29' E 024°02'9 9.0
2014-Aug-25 13:33N 36°21' E 024°04'9 8.9
2014-Aug-25 12:33N 36°12' E 024°06'9 9.4
2014-Aug-25 11:33N 36°03' E 024°08'9 9.4
2014-Aug-25 10:33N 35°53' E 024°10'13 9.1
2014-Aug-25 09:06N 35°40' E 024°13'12 7.4
2014-Aug-25 07:30N 35°29' E 024°09'1 0.0
2014-Aug-24 05:24N 35°29' E 024°10'31 7.9
2014-Aug-24 01:31N 35°60' E 024°09'11 8.3
2014-Aug-24 00:10N 36°11' E 024°07'5 8.4
2014-Aug-23 23:33N 36°16' E 024°05'  

Dump ship's entire track history